Terminal Aerodrome Forecast
Issued by NWS Atlanta, GA

Home | Current Version | Previous Version | Text Only | Print | Product List | Glossary On
Versions: 1 2 3 4 5 6 7 8 9 10 11 12 13 14 15 16 17 18 19 20 21 22 23 24 25 26 27 28 29 30 31 32
282
FTUS42 KFFC 241134
TAFAHN
TAF
KAHN 241134Z 2412/2512 24006KT P6SM VCSH BKN008 BKN015
     FM241400 26007KT P6SM VCSH SCT015 BKN020
     FM241600 27007KT P6SM VCSH BKN025
     FM241800 28008KT P6SM BKN040
      TEMPO 2420/2424 4SM -TSRA BKN025CB
     FM250000 30007KT P6SM BKN045=

USA.gov is the U.S. government's official web portal to all federal, state and local government web resources and services.